sensor_id;sensor_type;location;lat;lon;timestamp;P1;durP1;ratioP1;P2;durP2;ratioP2
49890;SDS011;35780;55.568;37.492;2023-03-23T00:01:03;5.40;;;2.90;;
49890;SDS011;35780;55.568;37.492;2023-03-23T00:03:29;5.72;;;3.20;;
49890;SDS011;35780;55.568;37.492;2023-03-23T00:05:57;4.68;;;3.13;;
49890;SDS011;35780;55.568;37.492;2023-03-23T00:08:29;5.15;;;2.92;;
49890;SDS011;35780;55.568;37.492;2023-03-23T00:11:20;4.45;;;2.65;;
49890;SDS011;35780;55.568;37.492;2023-03-23T00:13:47;5.55;;;3.00;;
49890;SDS011;35780;55.568;37.492;2023-03-23T00:16:17;6.97;;;3.45;;
49890;SDS011;35780;55.568;37.492;2023-03-23T00:18:45;5.32;;;3.15;;
49890;SDS011;35780;55.568;37.492;2023-03-23T00:21:12;6.13;;;3.10;;
49890;SDS011;35780;55.568;37.492;2023-03-23T00:23:37;6.03;;;3.45;;
49890;SDS011;35780;55.568;37.492;2023-03-23T00:26:04;5.07;;;3.20;;
49890;SDS011;35780;55.568;37.492;2023-03-23T00:28:29;4.68;;;3.00;;
49890;SDS011;35780;55.568;37.492;2023-03-23T00:30:56;7.82;;;3.30;;
49890;SDS011;35780;55.568;37.492;2023-03-23T00:33:26;6.70;;;3.60;;
49890;SDS011;35780;55.568;37.492;2023-03-23T00:35:53;5.10;;;3.63;;
49890;SDS011;35780;55.568;37.492;2023-03-23T00:38:19;7.68;;;3.20;;
49890;SDS011;35780;55.568;37.492;2023-03-23T00:40:46;7.15;;;3.70;;
49890;SDS011;35780;55.568;37.492;2023-03-23T00:43:13;6.60;;;3.75;;
49890;SDS011;35780;55.568;37.492;2023-03-23T00:45:41;6.30;;;3.28;;
49890;SDS011;35780;55.568;37.492;2023-03-23T00:48:07;6.32;;;3.10;;
49890;SDS011;35780;55.568;37.492;2023-03-23T00:50:32;5.45;;;3.10;;
49890;SDS011;35780;55.568;37.492;2023-03-23T00:52:58;5.75;;;3.65;;
49890;SDS011;35780;55.568;37.492;2023-03-23T00:55:26;4.97;;;2.97;;
49890;SDS011;35780;55.568;37.492;2023-03-23T00:57:52;5.60;;;3.38;;
49890;SDS011;35780;55.568;37.492;2023-03-23T01:00:19;7.97;;;3.13;;
49890;SDS011;35780;55.568;37.492;2023-03-23T01:02:45;4.18;;;3.00;;
49890;SDS011;35780;55.568;37.492;2023-03-23T01:05:11;6.22;;;3.72;;
49890;SDS011;35780;55.568;37.492;2023-03-23T01:07:36;5.07;;;3.10;;
49890;SDS011;35780;55.568;37.492;2023-03-23T01:10:03;5.95;;;2.97;;
49890;SDS011;35780;55.568;37.492;2023-03-23T01:12:29;5.85;;;3.35;;
49890;SDS011;35780;55.568;37.492;2023-03-23T01:14:54;4.85;;;2.90;;
49890;SDS011;35780;55.568;37.492;2023-03-23T01:17:20;5.95;;;3.47;;
49890;SDS011;35780;55.568;37.492;2023-03-23T01:19:46;3.95;;;2.35;;
49890;SDS011;35780;55.568;37.492;2023-03-23T01:22:11;4.35;;;2.47;;
49890;SDS011;35780;55.568;37.492;2023-03-23T01:24:37;4.93;;;2.90;;
49890;SDS011;35780;55.568;37.492;2023-03-23T01:27:03;4.32;;;2.70;;
49890;SDS011;35780;55.568;37.492;2023-03-23T01:29:32;3.55;;;1.95;;
49890;SDS011;35780;55.568;37.492;2023-03-23T01:32:01;4.68;;;2.80;;
49890;SDS011;35780;55.568;37.492;2023-03-23T01:34:27;6.20;;;2.58;;
49890;SDS011;35780;55.568;37.492;2023-03-23T01:36:53;5.07;;;3.15;;
49890;SDS011;35780;55.568;37.492;2023-03-23T01:39:18;4.63;;;2.30;;
49890;SDS011;35780;55.568;37.492;2023-03-23T01:41:44;5.82;;;3.03;;
49890;SDS011;35780;55.568;37.492;2023-03-23T01:46:42;4.60;;;2.57;;
49890;SDS011;35780;55.568;37.492;2023-03-23T01:49:09;4.13;;;2.20;;
49890;SDS011;35780;55.568;37.492;2023-03-23T01:51:45;4.82;;;2.92;;
49890;SDS011;35780;55.568;37.492;2023-03-23T01:54:14;3.72;;;2.47;;
49890;SDS011;35780;55.568;37.492;2023-03-23T01:56:48;5.55;;;3.13;;
49890;SDS011;35780;55.568;37.492;2023-03-23T01:59:17;6.03;;;2.63;;
49890;SDS011;35780;55.568;37.492;2023-03-23T02:01:43;4.95;;;2.60;;
49890;SDS011;35780;55.568;37.492;2023-03-23T02:04:12;6.57;;;2.88;;
49890;SDS011;35780;55.568;37.492;2023-03-23T02:06:39;6.53;;;3.63;;
49890;SDS011;35780;55.568;37.492;2023-03-23T02:09:05;5.50;;;3.28;;
49890;SDS011;35780;55.568;37.492;2023-03-23T02:11:31;6.75;;;3.40;;
49890;SDS011;35780;55.568;37.492;2023-03-23T02:13:57;5.50;;;3.05;;
49890;SDS011;35780;55.568;37.492;2023-03-23T02:22:21;4.40;;;2.38;;
49890;SDS011;35780;55.568;37.492;2023-03-23T02:28:04;4.85;;;3.03;;
49890;SDS011;35780;55.568;37.492;2023-03-23T02:38:35;5.70;;;2.70;;
49890;SDS011;35780;55.568;37.492;2023-03-23T02:41:08;5.38;;;3.25;;
49890;SDS011;35780;55.568;37.492;2023-03-23T02:43:40;4.65;;;2.67;;
49890;SDS011;35780;55.568;37.492;2023-03-23T02:46:08;5.15;;;3.08;;
49890;SDS011;35780;55.568;37.492;2023-03-23T02:48:34;4.75;;;2.50;;
49890;SDS011;35780;55.568;37.492;2023-03-23T02:51:00;6.18;;;2.95;;
49890;SDS011;35780;55.568;37.492;2023-03-23T02:53:27;4.75;;;2.58;;
49890;SDS011;35780;55.568;37.492;2023-03-23T02:55:54;4.70;;;2.53;;
49890;SDS011;35780;55.568;37.492;2023-03-23T02:58:21;4.22;;;1.98;;
49890;SDS011;35780;55.568;37.492;2023-03-23T03:00:48;4.30;;;2.72;;
49890;SDS011;35780;55.568;37.492;2023-03-23T03:03:15;5.63;;;3.17;;
49890;SDS011;35780;55.568;37.492;2023-03-23T03:05:51;3.78;;;2.40;;
49890;SDS011;35780;55.568;37.492;2023-03-23T03:11:05;4.82;;;2.80;;
49890;SDS011;35780;55.568;37.492;2023-03-23T03:19:27;4.10;;;2.63;;
49890;SDS011;35780;55.568;37.492;2023-03-23T03:21:56;5.82;;;2.80;;
49890;SDS011;35780;55.568;37.492;2023-03-23T03:24:24;5.90;;;3.25;;
49890;SDS011;35780;55.568;37.492;2023-03-23T03:26:51;4.38;;;2.67;;
49890;SDS011;35780;55.568;37.492;2023-03-23T03:29:20;5.88;;;3.30;;
49890;SDS011;35780;55.568;37.492;2023-03-23T03:31:48;5.18;;;3.30;;
49890;SDS011;35780;55.568;37.492;2023-03-23T03:34:14;6.78;;;2.90;;
49890;SDS011;35780;55.568;37.492;2023-03-23T03:36:43;5.70;;;3.00;;
49890;SDS011;35780;55.568;37.492;2023-03-23T03:39:11;5.80;;;3.42;;
49890;SDS011;35780;55.568;37.492;2023-03-23T03:41:40;6.50;;;3.42;;
49890;SDS011;35780;55.568;37.492;2023-03-23T03:44:06;7.90;;;4.07;;
49890;SDS011;35780;55.568;37.492;2023-03-23T03:46:32;8.77;;;3.97;;
49890;SDS011;35780;55.568;37.492;2023-03-23T03:48:59;8.02;;;4.03;;
49890;SDS011;35780;55.568;37.492;2023-03-23T03:51:26;6.90;;;4.00;;
49890;SDS011;35780;55.568;37.492;2023-03-23T03:53:52;11.57;;;5.50;;
49890;SDS011;35780;55.568;37.492;2023-03-23T03:56:18;6.95;;;4.43;;
49890;SDS011;35780;55.568;37.492;2023-03-23T03:58:45;7.97;;;4.63;;
49890;SDS011;35780;55.568;37.492;2023-03-23T04:01:13;13.02;;;4.90;;
49890;SDS011;35780;55.568;37.492;2023-03-23T04:03:40;7.78;;;4.60;;
49890;SDS011;35780;55.568;37.492;2023-03-23T04:06:06;6.93;;;4.88;;
49890;SDS011;35780;55.568;37.492;2023-03-23T04:08:33;12.20;;;4.93;;
49890;SDS011;35780;55.568;37.492;2023-03-23T04:10:59;7.90;;;4.35;;
49890;SDS011;35780;55.568;37.492;2023-03-23T04:13:25;7.93;;;4.82;;
49890;SDS011;35780;55.568;37.492;2023-03-23T04:15:50;8.07;;;4.72;;
49890;SDS011;35780;55.568;37.492;2023-03-23T04:18:16;10.25;;;5.43;;
49890;SDS011;35780;55.568;37.492;2023-03-23T04:20:46;8.70;;;4.63;;
49890;SDS011;35780;55.568;37.492;2023-03-23T04:23:17;8.18;;;4.32;;
49890;SDS011;35780;55.568;37.492;2023-03-23T04:25:48;10.50;;;5.35;;
49890;SDS011;35780;55.568;37.492;2023-03-23T04:28:15;8.30;;;4.78;;
49890;SDS011;35780;55.568;37.492;2023-03-23T04:30:44;11.00;;;5.13;;
49890;SDS011;35780;55.568;37.492;2023-03-23T04:33:10;9.05;;;4.90;;
49890;SDS011;35780;55.568;37.492;2023-03-23T04:35:41;15.77;;;7.72;;
49890;SDS011;35780;55.568;37.492;2023-03-23T04:38:08;8.80;;;4.88;;
49890;SDS011;35780;55.568;37.492;2023-03-23T04:40:38;14.73;;;6.55;;
49890;SDS011;35780;55.568;37.492;2023-03-23T04:43:05;13.18;;;6.55;;
49890;SDS011;35780;55.568;37.492;2023-03-23T04:45:32;11.02;;;4.70;;
49890;SDS011;35780;55.568;37.492;2023-03-23T04:47:59;14.40;;;8.65;;
49890;SDS011;35780;55.568;37.492;2023-03-23T04:50:27;21.20;;;6.22;;
49890;SDS011;35780;55.568;37.492;2023-03-23T04:52:56;13.13;;;7.60;;
49890;SDS011;35780;55.568;37.492;2023-03-23T04:55:22;15.02;;;6.82;;
49890;SDS011;35780;55.568;37.492;2023-03-23T04:57:48;9.50;;;5.82;;
49890;SDS011;35780;55.568;37.492;2023-03-23T05:00:14;13.18;;;6.05;;
49890;SDS011;35780;55.568;37.492;2023-03-23T05:02:42;14.95;;;7.22;;
49890;SDS011;35780;55.568;37.492;2023-03-23T05:05:10;11.18;;;5.82;;
49890;SDS011;35780;55.568;37.492;2023-03-23T05:07:40;10.82;;;5.53;;
49890;SDS011;35780;55.568;37.492;2023-03-23T05:10:07;8.45;;;5.65;;
49890;SDS011;35780;55.568;37.492;2023-03-23T05:12:35;9.65;;;5.85;;
49890;SDS011;35780;55.568;37.492;2023-03-23T05:15:01;33.60;;;6.60;;
49890;SDS011;35780;55.568;37.492;2023-03-23T05:17:28;11.45;;;6.45;;
49890;SDS011;35780;55.568;37.492;2023-03-23T05:19:55;11.60;;;5.85;;
49890;SDS011;35780;55.568;37.492;2023-03-23T05:22:22;10.15;;;6.18;;
49890;SDS011;35780;55.568;37.492;2023-03-23T05:24:47;11.68;;;5.90;;
49890;SDS011;35780;55.568;37.492;2023-03-23T05:27:18;9.15;;;5.40;;
49890;SDS011;35780;55.568;37.492;2023-03-23T05:29:46;12.10;;;5.22;;
49890;SDS011;35780;55.568;37.492;2023-03-23T05:32:14;8.50;;;5.45;;
49890;SDS011;35780;55.568;37.492;2023-03-23T05:34:41;10.52;;;5.68;;
49890;SDS011;35780;55.568;37.492;2023-03-23T05:37:08;7.45;;;4.65;;
49890;SDS011;35780;55.568;37.492;2023-03-23T05:39:34;9.75;;;4.97;;
49890;SDS011;35780;55.568;37.492;2023-03-23T05:42:00;10.20;;;6.20;;
49890;SDS011;35780;55.568;37.492;2023-03-23T05:44:26;9.68;;;6.60;;
49890;SDS011;35780;55.568;37.492;2023-03-23T05:46:52;8.73;;;5.85;;
49890;SDS011;35780;55.568;37.492;2023-03-23T05:49:17;10.43;;;6.57;;
49890;SDS011;35780;55.568;37.492;2023-03-23T05:51:43;10.02;;;5.93;;
49890;SDS011;35780;55.568;37.492;2023-03-23T05:54:11;10.10;;;5.95;;
49890;SDS011;35780;55.568;37.492;2023-03-23T05:56:37;12.25;;;6.90;;
49890;SDS011;35780;55.568;37.492;2023-03-23T05:59:03;11.25;;;6.35;;
49890;SDS011;35780;55.568;37.492;2023-03-23T06:01:28;9.38;;;5.65;;
49890;SDS011;35780;55.568;37.492;2023-03-23T06:03:54;12.40;;;6.72;;
49890;SDS011;35780;55.568;37.492;2023-03-23T06:06:27;8.85;;;5.80;;
49890;SDS011;35780;55.568;37.492;2023-03-23T06:08:54;11.35;;;6.53;;
49890;SDS011;35780;55.568;37.492;2023-03-23T06:11:20;12.50;;;6.53;;
49890;SDS011;35780;55.568;37.492;2023-03-23T06:13:46;9.52;;;5.82;;
49890;SDS011;35780;55.568;37.492;2023-03-23T06:16:12;10.65;;;5.30;;
49890;SDS011;35780;55.568;37.492;2023-03-23T06:18:38;10.80;;;5.97;;
49890;SDS011;35780;55.568;37.492;2023-03-23T06:21:05;10.85;;;6.28;;
49890;SDS011;35780;55.568;37.492;2023-03-23T06:23:31;10.00;;;5.65;;
49890;SDS011;35780;55.568;37.492;2023-03-23T06:26:00;10.35;;;6.00;;
49890;SDS011;35780;55.568;37.492;2023-03-23T06:28:27;10.65;;;6.10;;
49890;SDS011;35780;55.568;37.492;2023-03-23T06:30:53;12.18;;;7.22;;
49890;SDS011;35780;55.568;37.492;2023-03-23T06:33:19;7.70;;;4.28;;
49890;SDS011;35780;55.568;37.492;2023-03-23T06:35:45;9.63;;;5.88;;
49890;SDS011;35780;55.568;37.492;2023-03-23T06:38:10;9.43;;;5.65;;
49890;SDS011;35780;55.568;37.492;2023-03-23T06:40:37;10.32;;;5.40;;
49890;SDS011;35780;55.568;37.492;2023-03-23T06:43:03;10.75;;;5.78;;
49890;SDS011;35780;55.568;37.492;2023-03-23T06:45:29;8.65;;;5.10;;
49890;SDS011;35780;55.568;37.492;2023-03-23T06:47:55;8.57;;;6.32;;
49890;SDS011;35780;55.568;37.492;2023-03-23T06:50:21;11.13;;;6.05;;
49890;SDS011;35780;55.568;37.492;2023-03-23T06:52:47;10.68;;;5.65;;
49890;SDS011;35780;55.568;37.492;2023-03-23T06:55:14;9.45;;;5.93;;
49890;SDS011;35780;55.568;37.492;2023-03-23T06:57:41;9.43;;;6.07;;
49890;SDS011;35780;55.568;37.492;2023-03-23T07:00:08;9.40;;;6.35;;
49890;SDS011;35780;55.568;37.492;2023-03-23T07:02:37;7.95;;;5.47;;
49890;SDS011;35780;55.568;37.492;2023-03-23T07:05:02;10.57;;;7.13;;
49890;SDS011;35780;55.568;37.492;2023-03-23T07:07:28;10.60;;;6.60;;
49890;SDS011;35780;55.568;37.492;2023-03-23T07:09:55;10.85;;;7.10;;
49890;SDS011;35780;55.568;37.492;2023-03-23T07:12:21;11.18;;;8.02;;
49890;SDS011;35780;55.568;37.492;2023-03-23T07:14:46;12.25;;;7.00;;
49890;SDS011;35780;55.568;37.492;2023-03-23T07:17:12;13.25;;;6.30;;
49890;SDS011;35780;55.568;37.492;2023-03-23T07:19:38;15.75;;;6.72;;
49890;SDS011;35780;55.568;37.492;2023-03-23T07:22:04;10.38;;;6.00;;
49890;SDS011;35780;55.568;37.492;2023-03-23T07:24:31;13.32;;;6.00;;
49890;SDS011;35780;55.568;37.492;2023-03-23T07:26:56;11.82;;;5.60;;
49890;SDS011;35780;55.568;37.492;2023-03-23T07:29:22;9.50;;;5.57;;
49890;SDS011;35780;55.568;37.492;2023-03-23T07:31:48;9.05;;;6.10;;
49890;SDS011;35780;55.568;37.492;2023-03-23T07:34:14;7.13;;;5.30;;
49890;SDS011;35780;55.568;37.492;2023-03-23T07:36:40;8.57;;;5.28;;
49890;SDS011;35780;55.568;37.492;2023-03-23T07:39:05;8.73;;;5.30;;
49890;SDS011;35780;55.568;37.492;2023-03-23T07:41:32;8.10;;;5.00;;
49890;SDS011;35780;55.568;37.492;2023-03-23T07:43:58;8.85;;;5.55;;
49890;SDS011;35780;55.568;37.492;2023-03-23T07:46:23;10.48;;;4.88;;
49890;SDS011;35780;55.568;37.492;2023-03-23T07:48:49;7.50;;;4.70;;
49890;SDS011;35780;55.568;37.492;2023-03-23T07:51:15;12.95;;;10.13;;
49890;SDS011;35780;55.568;37.492;2023-03-23T07:53:44;11.07;;;5.53;;
49890;SDS011;35780;55.568;37.492;2023-03-23T07:56:12;11.60;;;6.72;;
49890;SDS011;35780;55.568;37.492;2023-03-23T07:58:40;7.00;;;3.90;;
49890;SDS011;35780;55.568;37.492;2023-03-23T08:01:06;13.98;;;6.03;;
49890;SDS011;35780;55.568;37.492;2023-03-23T08:03:32;7.53;;;4.68;;
49890;SDS011;35780;55.568;37.492;2023-03-23T08:05:58;7.28;;;4.45;;
49890;SDS011;35780;55.568;37.492;2023-03-23T08:08:24;10.45;;;5.28;;
49890;SDS011;35780;55.568;37.492;2023-03-23T08:10:50;6.72;;;4.75;;
49890;SDS011;35780;55.568;37.492;2023-03-23T08:13:16;9.05;;;5.53;;
49890;SDS011;35780;55.568;37.492;2023-03-23T08:15:42;7.60;;;5.13;;
49890;SDS011;35780;55.568;37.492;2023-03-23T08:18:08;7.32;;;4.22;;
49890;SDS011;35780;55.568;37.492;2023-03-23T08:20:35;5.57;;;3.92;;
49890;SDS011;35780;55.568;37.492;2023-03-23T08:23:02;6.40;;;4.00;;
49890;SDS011;35780;55.568;37.492;2023-03-23T08:25:28;5.28;;;3.25;;
49890;SDS011;35780;55.568;37.492;2023-03-23T08:27:57;5.50;;;3.75;;
49890;SDS011;35780;55.568;37.492;2023-03-23T08:30:23;5.82;;;4.05;;
49890;SDS011;35780;55.568;37.492;2023-03-23T08:32:51;7.10;;;3.88;;
49890;SDS011;35780;55.568;37.492;2023-03-23T08:35:17;5.43;;;4.13;;
49890;SDS011;35780;55.568;37.492;2023-03-23T08:37:43;8.45;;;4.68;;
49890;SDS011;35780;55.568;37.492;2023-03-23T08:40:10;8.75;;;4.60;;
49890;SDS011;35780;55.568;37.492;2023-03-23T08:42:38;7.68;;;4.22;;
49890;SDS011;35780;55.568;37.492;2023-03-23T08:45:05;8.48;;;4.45;;
49890;SDS011;35780;55.568;37.492;2023-03-23T08:47:32;10.48;;;5.18;;
49890;SDS011;35780;55.568;37.492;2023-03-23T08:49:58;8.43;;;4.50;;
49890;SDS011;35780;55.568;37.492;2023-03-23T08:52:24;4.40;;;3.00;;
49890;SDS011;35780;55.568;37.492;2023-03-23T08:54:49;7.15;;;4.63;;
49890;SDS011;35780;55.568;37.492;2023-03-23T08:57:15;6.30;;;4.13;;
49890;SDS011;35780;55.568;37.492;2023-03-23T08:59:41;7.82;;;3.83;;
49890;SDS011;35780;55.568;37.492;2023-03-23T09:02:09;5.20;;;4.10;;
49890;SDS011;35780;55.568;37.492;2023-03-23T09:04:37;4.63;;;3.25;;
49890;SDS011;35780;55.568;37.492;2023-03-23T09:07:04;9.90;;;4.50;;
49890;SDS011;35780;55.568;37.492;2023-03-23T09:09:30;6.82;;;4.50;;
49890;SDS011;35780;55.568;37.492;2023-03-23T09:11:55;7.65;;;4.28;;
49890;SDS011;35780;55.568;37.492;2023-03-23T09:14:21;6.10;;;3.47;;
49890;SDS011;35780;55.568;37.492;2023-03-23T09:16:46;7.30;;;4.47;;
49890;SDS011;35780;55.568;37.492;2023-03-23T09:19:12;10.20;;;5.43;;
49890;SDS011;35780;55.568;37.492;2023-03-23T09:21:38;9.95;;;4.85;;
49890;SDS011;35780;55.568;37.492;2023-03-23T09:24:03;7.70;;;4.55;;
49890;SDS011;35780;55.568;37.492;2023-03-23T09:26:30;6.38;;;4.40;;
49890;SDS011;35780;55.568;37.492;2023-03-23T09:28:56;8.80;;;4.75;;
49890;SDS011;35780;55.568;37.492;2023-03-23T09:31:23;6.80;;;4.45;;
49890;SDS011;35780;55.568;37.492;2023-03-23T09:33:51;6.22;;;3.95;;
49890;SDS011;35780;55.568;37.492;2023-03-23T09:36:19;9.30;;;5.25;;
49890;SDS011;35780;55.568;37.492;2023-03-23T09:38:46;5.82;;;4.13;;
49890;SDS011;35780;55.568;37.492;2023-03-23T09:49:55;12.73;;;6.05;;
49890;SDS011;35780;55.568;37.492;2023-03-23T09:52:26;7.90;;;4.55;;
49890;SDS011;35780;55.568;37.492;2023-03-23T09:55:12;10.25;;;4.90;;
49890;SDS011;35780;55.568;37.492;2023-03-23T10:05:30;6.53;;;3.47;;
49890;SDS011;35780;55.568;37.492;2023-03-23T10:07:58;5.05;;;4.20;;
49890;SDS011;35780;55.568;37.492;2023-03-23T10:10:35;4.38;;;2.88;;
49890;SDS011;35780;55.568;37.492;2023-03-23T10:13:09;6.40;;;4.03;;
49890;SDS011;35780;55.568;37.492;2023-03-23T10:15:51;6.78;;;3.92;;
49890;SDS011;35780;55.568;37.492;2023-03-23T10:25:55;6.40;;;3.50;;
49890;SDS011;35780;55.568;37.492;2023-03-23T10:28:35;7.07;;;3.83;;
49890;SDS011;35780;55.568;37.492;2023-03-23T10:31:02;5.80;;;3.25;;
49890;SDS011;35780;55.568;37.492;2023-03-23T10:41:35;4.45;;;2.72;;
49890;SDS011;35780;55.568;37.492;2023-03-23T10:44:01;5.18;;;3.00;;
49890;SDS011;35780;55.568;37.492;2023-03-23T10:49:15;5.93;;;3.28;;
49890;SDS011;35780;55.568;37.492;2023-03-23T10:51:44;4.32;;;2.20;;
49890;SDS011;35780;55.568;37.492;2023-03-23T10:54:27;5.25;;;3.05;;
49890;SDS011;35780;55.568;37.492;2023-03-23T10:56:58;7.40;;;3.97;;
49890;SDS011;35780;55.568;37.492;2023-03-23T10:59:28;6.10;;;3.30;;
49890;SDS011;35780;55.568;37.492;2023-03-23T11:01:55;11.13;;;3.50;;
49890;SDS011;35780;55.568;37.492;2023-03-23T11:04:24;4.70;;;2.90;;
49890;SDS011;35780;55.568;37.492;2023-03-23T11:06:51;3.60;;;2.83;;
49890;SDS011;35780;55.568;37.492;2023-03-23T11:09:18;4.60;;;3.30;;
49890;SDS011;35780;55.568;37.492;2023-03-23T11:11:49;9.45;;;3.45;;
49890;SDS011;35780;55.568;37.492;2023-03-23T11:16:51;4.35;;;2.97;;
49890;SDS011;35780;55.568;37.492;2023-03-23T11:19:23;4.72;;;2.90;;
49890;SDS011;35780;55.568;37.492;2023-03-23T11:24:36;4.05;;;2.53;;
49890;SDS011;35780;55.568;37.492;2023-03-23T11:27:06;4.82;;;2.55;;
49890;SDS011;35780;55.568;37.492;2023-03-23T11:29:34;5.03;;;3.55;;
49890;SDS011;35780;55.568;37.492;2023-03-23T11:34:33;6.20;;;3.35;;
49890;SDS011;35780;55.568;37.492;2023-03-23T11:37:48;5.32;;;3.78;;
49890;SDS011;35780;55.568;37.492;2023-03-23T11:40:00;5.68;;;2.80;;
49890;SDS011;35780;55.568;37.492;2023-03-23T11:42:56;5.57;;;3.08;;
49890;SDS011;35780;55.568;37.492;2023-03-23T11:50:55;5.70;;;3.42;;
49890;SDS011;35780;55.568;37.492;2023-03-23T11:55:57;6.70;;;3.20;;
49890;SDS011;35780;55.568;37.492;2023-03-23T11:58:26;5.55;;;3.28;;
49890;SDS011;35780;55.568;37.492;2023-03-23T12:03:58;5.63;;;3.20;;
49890;SDS011;35780;55.568;37.492;2023-03-23T12:17:50;9.68;;;3.75;;
49890;SDS011;35780;55.568;37.492;2023-03-23T12:20:38;5.00;;;2.53;;
49890;SDS011;35780;55.568;37.492;2023-03-23T12:25:39;9.10;;;4.03;;
49890;SDS011;35780;55.568;37.492;2023-03-23T12:36:40;5.28;;;3.30;;
49890;SDS011;35780;55.568;37.492;2023-03-23T12:44:39;6.47;;;2.88;;
49890;SDS011;35780;55.568;37.492;2023-03-23T12:47:31;4.25;;;2.70;;
49890;SDS011;35780;55.568;37.492;2023-03-23T12:52:55;6.53;;;3.78;;
49890;SDS011;35780;55.568;37.492;2023-03-23T12:58:34;4.78;;;2.80;;
49890;SDS011;35780;55.568;37.492;2023-03-23T13:01:16;8.15;;;3.53;;
49890;SDS011;35780;55.568;37.492;2023-03-23T13:03:49;6.10;;;2.60;;
49890;SDS011;35780;55.568;37.492;2023-03-23T13:11:57;4.32;;;2.80;;
49890;SDS011;35780;55.568;37.492;2023-03-23T13:25:10;6.95;;;3.22;;
49890;SDS011;35780;55.568;37.492;2023-03-23T13:27:39;6.95;;;3.72;;
49890;SDS011;35780;55.568;37.492;2023-03-23T13:30:17;8.40;;;2.53;;
49890;SDS011;35780;55.568;37.492;2023-03-23T13:32:49;5.63;;;3.63;;
49890;SDS011;35780;55.568;37.492;2023-03-23T13:35:16;4.90;;;3.15;;
49890;SDS011;35780;55.568;37.492;2023-03-23T13:37:46;7.20;;;3.25;;
49890;SDS011;35780;55.568;37.492;2023-03-23T13:40:17;6.68;;;3.60;;
49890;SDS011;35780;55.568;37.492;2023-03-23T13:42:55;7.65;;;3.33;;
49890;SDS011;35780;55.568;37.492;2023-03-23T13:45:24;5.20;;;2.92;;
49890;SDS011;35780;55.568;37.492;2023-03-23T13:50:48;7.00;;;3.22;;
49890;SDS011;35780;55.568;37.492;2023-03-23T13:53:23;7.10;;;3.75;;
49890;SDS011;35780;55.568;37.492;2023-03-23T13:58:46;8.88;;;3.20;;
49890;SDS011;35780;55.568;37.492;2023-03-23T14:01:34;4.82;;;3.50;;
49890;SDS011;35780;55.568;37.492;2023-03-23T14:04:04;7.97;;;3.75;;
49890;SDS011;35780;55.568;37.492;2023-03-23T14:06:35;5.22;;;3.35;;
49890;SDS011;35780;55.568;37.492;2023-03-23T14:09:11;6.63;;;3.42;;
49890;SDS011;35780;55.568;37.492;2023-03-23T14:12:00;7.22;;;3.75;;
49890;SDS011;35780;55.568;37.492;2023-03-23T14:14:34;5.50;;;2.47;;
49890;SDS011;35780;55.568;37.492;2023-03-23T14:17:06;5.45;;;3.60;;
49890;SDS011;35780;55.568;37.492;2023-03-23T14:19:37;6.43;;;2.78;;
49890;SDS011;35780;55.568;37.492;2023-03-23T14:22:04;7.15;;;3.10;;
49890;SDS011;35780;55.568;37.492;2023-03-23T14:24:31;7.90;;;3.53;;
49890;SDS011;35780;55.568;37.492;2023-03-23T14:27:02;6.85;;;3.70;;
49890;SDS011;35780;55.568;37.492;2023-03-23T14:30:06;9.30;;;4.25;;
49890;SDS011;35780;55.568;37.492;2023-03-23T14:32:33;6.43;;;3.35;;
49890;SDS011;35780;55.568;37.492;2023-03-23T14:35:04;6.82;;;3.80;;
49890;SDS011;35780;55.568;37.492;2023-03-23T14:37:31;5.93;;;3.60;;
49890;SDS011;35780;55.568;37.492;2023-03-23T14:39:57;7.78;;;3.25;;
49890;SDS011;35780;55.568;37.492;2023-03-23T14:42:33;6.10;;;3.38;;
49890;SDS011;35780;55.568;37.492;2023-03-23T14:45:00;8.48;;;4.32;;
49890;SDS011;35780;55.568;37.492;2023-03-23T14:47:39;6.85;;;3.60;;
49890;SDS011;35780;55.568;37.492;2023-03-23T14:50:30;6.72;;;3.17;;
49890;SDS011;35780;55.568;37.492;2023-03-23T14:53:29;5.93;;;3.00;;
49890;SDS011;35780;55.568;37.492;2023-03-23T14:56:10;6.28;;;3.60;;
49890;SDS011;35780;55.568;37.492;2023-03-23T14:58:37;10.57;;;3.50;;
49890;SDS011;35780;55.568;37.492;2023-03-23T15:01:07;14.07;;;4.35;;
49890;SDS011;35780;55.568;37.492;2023-03-23T15:03:42;7.82;;;4.53;;
49890;SDS011;35780;55.568;37.492;2023-03-23T15:06:12;7.45;;;3.63;;
49890;SDS011;35780;55.568;37.492;2023-03-23T15:08:40;5.97;;;3.30;;
49890;SDS011;35780;55.568;37.492;2023-03-23T15:11:28;6.90;;;3.60;;
49890;SDS011;35780;55.568;37.492;2023-03-23T15:13:55;6.18;;;3.25;;
49890;SDS011;35780;55.568;37.492;2023-03-23T15:19:34;6.75;;;3.65;;
49890;SDS011;35780;55.568;37.492;2023-03-23T15:22:04;9.30;;;3.83;;
49890;SDS011;35780;55.568;37.492;2023-03-23T15:24:42;7.40;;;3.70;;
49890;SDS011;35780;55.568;37.492;2023-03-23T15:27:13;5.95;;;3.60;;
49890;SDS011;35780;55.568;37.492;2023-03-23T15:32:13;7.03;;;2.97;;
49890;SDS011;35780;55.568;37.492;2023-03-23T15:34:46;8.98;;;3.97;;
49890;SDS011;35780;55.568;37.492;2023-03-23T15:37:19;9.15;;;4.25;;
49890;SDS011;35780;55.568;37.492;2023-03-23T15:39:46;8.70;;;4.50;;
49890;SDS011;35780;55.568;37.492;2023-03-23T15:42:19;15.95;;;5.20;;
49890;SDS011;35780;55.568;37.492;2023-03-23T15:44:54;6.75;;;3.95;;
49890;SDS011;35780;55.568;37.492;2023-03-23T15:47:33;9.63;;;4.97;;
49890;SDS011;35780;55.568;37.492;2023-03-23T15:50:47;10.30;;;5.72;;
49890;SDS011;35780;55.568;37.492;2023-03-23T15:52:50;10.18;;;4.93;;
49890;SDS011;35780;55.568;37.492;2023-03-23T15:58:00;8.23;;;4.90;;
49890;SDS011;35780;55.568;37.492;2023-03-23T16:00:26;8.95;;;4.72;;
49890;SDS011;35780;55.568;37.492;2023-03-23T16:02:56;7.03;;;4.75;;
49890;SDS011;35780;55.568;37.492;2023-03-23T16:05:24;8.07;;;4.40;;
49890;SDS011;35780;55.568;37.492;2023-03-23T16:07:49;11.05;;;5.40;;
49890;SDS011;35780;55.568;37.492;2023-03-23T16:10:17;11.65;;;5.43;;
49890;SDS011;35780;55.568;37.492;2023-03-23T16:12:44;9.35;;;3.97;;
49890;SDS011;35780;55.568;37.492;2023-03-23T16:15:11;9.80;;;4.57;;
49890;SDS011;35780;55.568;37.492;2023-03-23T16:17:37;8.20;;;4.88;;
49890;SDS011;35780;55.568;37.492;2023-03-23T16:20:08;5.95;;;4.03;;
49890;SDS011;35780;55.568;37.492;2023-03-23T16:22:42;7.32;;;4.45;;
49890;SDS011;35780;55.568;37.492;2023-03-23T16:25:08;8.55;;;5.28;;
49890;SDS011;35780;55.568;37.492;2023-03-23T16:27:34;7.80;;;4.07;;
49890;SDS011;35780;55.568;37.492;2023-03-23T16:30:00;9.60;;;5.22;;
49890;SDS011;35780;55.568;37.492;2023-03-23T16:32:29;8.55;;;4.65;;
49890;SDS011;35780;55.568;37.492;2023-03-23T16:34:54;13.38;;;5.45;;
49890;SDS011;35780;55.568;37.492;2023-03-23T16:37:20;11.45;;;5.15;;
49890;SDS011;35780;55.568;37.492;2023-03-23T16:39:46;14.35;;;6.40;;
49890;SDS011;35780;55.568;37.492;2023-03-23T16:42:11;9.82;;;5.28;;
49890;SDS011;35780;55.568;37.492;2023-03-23T16:44:37;8.15;;;5.05;;
49890;SDS011;35780;55.568;37.492;2023-03-23T16:47:02;6.78;;;4.20;;
49890;SDS011;35780;55.568;37.492;2023-03-23T16:49:28;8.30;;;3.97;;
49890;SDS011;35780;55.568;37.492;2023-03-23T16:51:53;9.90;;;5.20;;
49890;SDS011;35780;55.568;37.492;2023-03-23T16:54:20;8.20;;;4.60;;
49890;SDS011;35780;55.568;37.492;2023-03-23T16:56:46;9.13;;;4.28;;
49890;SDS011;35780;55.568;37.492;2023-03-23T16:59:13;11.57;;;4.38;;
49890;SDS011;35780;55.568;37.492;2023-03-23T17:01:38;9.07;;;5.47;;
49890;SDS011;35780;55.568;37.492;2023-03-23T17:04:05;9.82;;;4.75;;
49890;SDS011;35780;55.568;37.492;2023-03-23T17:06:31;12.85;;;4.90;;